Portada
METAR-TAF:

METAR-TAF

Aeropuertos :

Ardebil, Irán

latitud: 38-19-35N, longitud: 048-25-28E, altitud: 1315 m

Observación

El informe se hizo hace 9 horas y 54 minutos, a las 14:30 UTC
Viento 10 kt del este-noreste
Temperatura -4°C
Humedad 93%
Presión 1017 hPa
Visibilidad: 3000 m
Nubes dispersas a una altura de 1500 ft
Cielo nuboso a una altura de 2500 ft
Cielo cubierto a una altura de 8000 ft
poca nieve, Parcialmente cubierto por la niebla, neblina

METAR: OITL 241430Z 06010KT 3000 -SN PRFG BR SCT015 BKN025 OVC080 M04/M05 Q1017

Hora: 03:54 (00:24 UTC)


TAF: falta

Observaciones y pronósticos meteorológicos de más de 4000 aeropuertos (mensajes METAR y TAF).

Los puntos amarillos y rojos representan las estaciones disponibles.

Ponga el ratón en el punto deseado para ver el nombre de la estación.

Haga clic para ver las observaciones y los pronósticos meteorológicos.

Para cambiar el mapa : haga clic en los botones verdes con una cruz de color negro para hacer un zoom, en el botón verde con un guión para alejar o en las flechas verdes para mapas adyacentes.


METAR-TAF: